sensor_id;sensor_type;location;lat;lon;timestamp;temperature;humidity
52295;DHT22;38243;53.212;6.574;2023-04-29T00:02:01;18.10;69.80
52295;DHT22;38243;53.212;6.574;2023-04-29T00:04:27;18.10;69.90
52295;DHT22;38243;53.212;6.574;2023-04-29T00:06:53;18.10;69.90
52295;DHT22;38243;53.212;6.574;2023-04-29T00:09:20;18.10;69.90
52295;DHT22;38243;53.212;6.574;2023-04-29T00:11:46;18.10;69.90
52295;DHT22;38243;53.212;6.574;2023-04-29T00:14:12;18.00;69.90
52295;DHT22;38243;53.212;6.574;2023-04-29T00:16:38;18.00;69.90
52295;DHT22;38243;53.212;6.574;2023-04-29T00:19:04;18.00;69.90
52295;DHT22;38243;53.212;6.574;2023-04-29T00:21:29;18.00;69.90
52295;DHT22;38243;53.212;6.574;2023-04-29T00:23:56;18.00;69.90
52295;DHT22;38243;53.212;6.574;2023-04-29T00:26:22;18.00;69.80
52295;DHT22;38243;53.212;6.574;2023-04-29T00:28:48;18.00;69.80
52295;DHT22;38243;53.212;6.574;2023-04-29T00:31:13;18.00;69.80
52295;DHT22;38243;53.212;6.574;2023-04-29T00:33:39;18.00;69.90
52295;DHT22;38243;53.212;6.574;2023-04-29T00:36:06;18.00;69.80
52295;DHT22;38243;53.212;6.574;2023-04-29T00:38:32;18.00;69.80
52295;DHT22;38243;53.212;6.574;2023-04-29T00:40:57;18.10;69.80
52295;DHT22;38243;53.212;6.574;2023-04-29T00:43:23;18.10;69.90
52295;DHT22;38243;53.212;6.574;2023-04-29T00:45:49;18.00;69.80
52295;DHT22;38243;53.212;6.574;2023-04-29T00:48:15;18.10;69.90
52295;DHT22;38243;53.212;6.574;2023-04-29T00:50:41;18.00;69.80
52295;DHT22;38243;53.212;6.574;2023-04-29T00:53:09;18.00;69.80
52295;DHT22;38243;53.212;6.574;2023-04-29T00:55:38;18.10;69.90
52295;DHT22;38243;53.212;6.574;2023-04-29T00:58:04;18.10;69.80
52295;DHT22;38243;53.212;6.574;2023-04-29T01:00:30;18.10;69.80
52295;DHT22;38243;53.212;6.574;2023-04-29T01:02:56;18.10;69.80
52295;DHT22;38243;53.212;6.574;2023-04-29T01:05:24;18.00;69.70
52295;DHT22;38243;53.212;6.574;2023-04-29T01:10:31;18.10;69.80
52295;DHT22;38243;53.212;6.574;2023-04-29T01:13:08;18.00;69.70
52295;DHT22;38243;53.212;6.574;2023-04-29T01:15:43;18.00;69.70
52295;DHT22;38243;53.212;6.574;2023-04-29T01:18:28;18.00;69.70
52295;DHT22;38243;53.212;6.574;2023-04-29T01:20:56;18.00;69.70
52295;DHT22;38243;53.212;6.574;2023-04-29T01:23:26;18.00;69.70
52295;DHT22;38243;53.212;6.574;2023-04-29T01:25:52;18.00;69.70
52295;DHT22;38243;53.212;6.574;2023-04-29T01:31:25;18.00;69.70
52295;DHT22;38243;53.212;6.574;2023-04-29T01:36:51;18.00;69.80
52295;DHT22;38243;53.212;6.574;2023-04-29T01:39:40;18.00;69.70
52295;DHT22;38243;53.212;6.574;2023-04-29T01:42:21;18.00;69.70
52295;DHT22;38243;53.212;6.574;2023-04-29T01:44:48;18.00;69.80
52295;DHT22;38243;53.212;6.574;2023-04-29T01:47:16;18.00;69.80
52295;DHT22;38243;53.212;6.574;2023-04-29T01:49:43;18.00;69.80
52295;DHT22;38243;53.212;6.574;2023-04-29T01:52:11;18.00;69.80
52295;DHT22;38243;53.212;6.574;2023-04-29T01:54:37;18.00;69.70
52295;DHT22;38243;53.212;6.574;2023-04-29T01:57:03;18.00;69.70
52295;DHT22;38243;53.212;6.574;2023-04-29T01:59:29;18.00;69.70
52295;DHT22;38243;53.212;6.574;2023-04-29T02:01:55;18.00;69.70
52295;DHT22;38243;53.212;6.574;2023-04-29T02:04:23;18.00;69.70
52295;DHT22;38243;53.212;6.574;2023-04-29T02:06:50;18.00;69.80
52295;DHT22;38243;53.212;6.574;2023-04-29T02:09:17;17.90;69.80
52295;DHT22;38243;53.212;6.574;2023-04-29T02:11:43;17.90;69.80
52295;DHT22;38243;53.212;6.574;2023-04-29T02:14:08;17.90;69.80
52295;DHT22;38243;53.212;6.574;2023-04-29T02:16:34;17.90;69.80
52295;DHT22;38243;53.212;6.574;2023-04-29T02:19:00;17.90;69.80
52295;DHT22;38243;53.212;6.574;2023-04-29T02:21:25;17.90;69.80
52295;DHT22;38243;53.212;6.574;2023-04-29T02:23:51;17.90;69.80
52295;DHT22;38243;53.212;6.574;2023-04-29T02:26:18;17.90;69.80
52295;DHT22;38243;53.212;6.574;2023-04-29T02:28:44;17.90;69.80
52295;DHT22;38243;53.212;6.574;2023-04-29T02:31:10;17.90;69.80
52295;DHT22;38243;53.212;6.574;2023-04-29T02:33:36;17.90;69.80
52295;DHT22;38243;53.212;6.574;2023-04-29T02:36:03;17.90;69.80
52295;DHT22;38243;53.212;6.574;2023-04-29T02:38:28;17.90;69.80
52295;DHT22;38243;53.212;6.574;2023-04-29T02:40:54;17.90;69.80
52295;DHT22;38243;53.212;6.574;2023-04-29T02:43:20;17.90;69.90
52295;DHT22;38243;53.212;6.574;2023-04-29T02:45:46;17.90;70.00
52295;DHT22;38243;53.212;6.574;2023-04-29T02:48:11;17.80;69.90
52295;DHT22;38243;53.212;6.574;2023-04-29T02:50:37;17.80;69.90
52295;DHT22;38243;53.212;6.574;2023-04-29T02:53:03;17.80;69.90
52295;DHT22;38243;53.212;6.574;2023-04-29T02:55:28;17.80;70.00
52295;DHT22;38243;53.212;6.574;2023-04-29T02:57:54;17.80;70.00
52295;DHT22;38243;53.212;6.574;2023-04-29T03:00:20;17.80;70.00
52295;DHT22;38243;53.212;6.574;2023-04-29T03:02:46;17.80;70.00
52295;DHT22;38243;53.212;6.574;2023-04-29T03:05:12;17.80;70.70
52295;DHT22;38243;53.212;6.574;2023-04-29T03:07:37;17.80;70.00
52295;DHT22;38243;53.212;6.574;2023-04-29T03:10:04;17.70;70.00
52295;DHT22;38243;53.212;6.574;2023-04-29T03:12:30;17.70;70.10
52295;DHT22;38243;53.212;6.574;2023-04-29T03:14:55;17.70;70.10
52295;DHT22;38243;53.212;6.574;2023-04-29T03:17:21;17.70;70.10
52295;DHT22;38243;53.212;6.574;2023-04-29T03:19:47;17.70;70.00
52295;DHT22;38243;53.212;6.574;2023-04-29T03:22:13;17.70;70.00
52295;DHT22;38243;53.212;6.574;2023-04-29T03:24:38;17.70;70.00
52295;DHT22;38243;53.212;6.574;2023-04-29T03:27:04;17.70;70.00
52295;DHT22;38243;53.212;6.574;2023-04-29T03:29:30;17.80;70.10
52295;DHT22;38243;53.212;6.574;2023-04-29T03:31:56;17.70;70.00
52295;DHT22;38243;53.212;6.574;2023-04-29T03:34:22;17.80;70.00
52295;DHT22;38243;53.212;6.574;2023-04-29T03:36:49;17.80;70.00
52295;DHT22;38243;53.212;6.574;2023-04-29T03:39:16;17.70;70.00
52295;DHT22;38243;53.212;6.574;2023-04-29T03:41:41;17.80;70.00
52295;DHT22;38243;53.212;6.574;2023-04-29T03:44:08;17.80;70.00
52295;DHT22;38243;53.212;6.574;2023-04-29T03:46:33;17.80;70.00
52295;DHT22;38243;53.212;6.574;2023-04-29T03:48:59;17.70;70.00
52295;DHT22;38243;53.212;6.574;2023-04-29T03:51:25;17.70;70.00
52295;DHT22;38243;53.212;6.574;2023-04-29T03:53:53;17.70;70.00
52295;DHT22;38243;53.212;6.574;2023-04-29T03:56:20;17.70;70.00
52295;DHT22;38243;53.212;6.574;2023-04-29T03:58:47;17.70;70.00
52295;DHT22;38243;53.212;6.574;2023-04-29T04:01:13;17.80;70.00
52295;DHT22;38243;53.212;6.574;2023-04-29T04:03:39;17.80;70.00
52295;DHT22;38243;53.212;6.574;2023-04-29T04:06:07;17.80;69.90
52295;DHT22;38243;53.212;6.574;2023-04-29T04:08:33;17.80;69.90
52295;DHT22;38243;53.212;6.574;2023-04-29T04:10:59;17.80;69.80
52295;DHT22;38243;53.212;6.574;2023-04-29T04:13:31;17.80;69.80
52295;DHT22;38243;53.212;6.574;2023-04-29T04:15:57;17.80;69.80
52295;DHT22;38243;53.212;6.574;2023-04-29T04:18:22;17.80;69.80
52295;DHT22;38243;53.212;6.574;2023-04-29T04:20:48;17.80;69.70
52295;DHT22;38243;53.212;6.574;2023-04-29T04:23:14;17.80;69.70
52295;DHT22;38243;53.212;6.574;2023-04-29T04:25:47;17.80;69.70
52295;DHT22;38243;53.212;6.574;2023-04-29T04:28:13;17.90;69.70
52295;DHT22;38243;53.212;6.574;2023-04-29T04:30:39;17.90;69.70
52295;DHT22;38243;53.212;6.574;2023-04-29T04:33:04;17.90;69.60
52295;DHT22;38243;53.212;6.574;2023-04-29T04:35:30;17.80;69.60
52295;DHT22;38243;53.212;6.574;2023-04-29T04:37:56;17.90;69.70
52295;DHT22;38243;53.212;6.574;2023-04-29T04:40:23;17.90;69.70
52295;DHT22;38243;53.212;6.574;2023-04-29T04:42:49;17.80;69.60
52295;DHT22;38243;53.212;6.574;2023-04-29T04:45:14;17.90;70.30
52295;DHT22;38243;53.212;6.574;2023-04-29T04:47:40;17.80;69.60
52295;DHT22;38243;53.212;6.574;2023-04-29T04:50:07;17.90;69.70
52295;DHT22;38243;53.212;6.574;2023-04-29T04:52:33;17.90;69.60
52295;DHT22;38243;53.212;6.574;2023-04-29T04:54:59;17.90;69.70
52295;DHT22;38243;53.212;6.574;2023-04-29T04:57:25;17.80;69.70
52295;DHT22;38243;53.212;6.574;2023-04-29T04:59:51;17.90;69.70
52295;DHT22;38243;53.212;6.574;2023-04-29T05:02:17;17.80;69.60
52295;DHT22;38243;53.212;6.574;2023-04-29T05:04:42;17.90;69.60
52295;DHT22;38243;53.212;6.574;2023-04-29T05:07:09;17.90;69.70
52295;DHT22;38243;53.212;6.574;2023-04-29T05:09:35;17.90;69.60
52295;DHT22;38243;53.212;6.574;2023-04-29T05:12:01;17.90;69.60
52295;DHT22;38243;53.212;6.574;2023-04-29T05:14:27;17.90;69.60
52295;DHT22;38243;53.212;6.574;2023-04-29T05:16:57;17.90;69.60
52295;DHT22;38243;53.212;6.574;2023-04-29T05:19:23;17.90;69.60
52295;DHT22;38243;53.212;6.574;2023-04-29T05:21:49;17.90;69.60
52295;DHT22;38243;53.212;6.574;2023-04-29T05:24:15;17.80;69.50
52295;DHT22;38243;53.212;6.574;2023-04-29T05:26:40;17.90;69.60
52295;DHT22;38243;53.212;6.574;2023-04-29T05:29:09;17.90;69.60
52295;DHT22;38243;53.212;6.574;2023-04-29T05:31:35;17.90;69.50
52295;DHT22;38243;53.212;6.574;2023-04-29T05:34:01;17.90;69.50
52295;DHT22;38243;53.212;6.574;2023-04-29T05:36:27;17.90;69.50
52295;DHT22;38243;53.212;6.574;2023-04-29T05:38:53;17.90;69.50
52295;DHT22;38243;53.212;6.574;2023-04-29T05:41:19;17.80;69.50
52295;DHT22;38243;53.212;6.574;2023-04-29T05:43:45;17.90;69.50
52295;DHT22;38243;53.212;6.574;2023-04-29T05:46:11;17.90;69.50
52295;DHT22;38243;53.212;6.574;2023-04-29T05:48:36;17.90;69.60
52295;DHT22;38243;53.212;6.574;2023-04-29T05:51:02;17.90;69.60
52295;DHT22;38243;53.212;6.574;2023-04-29T05:53:28;17.90;69.60
52295;DHT22;38243;53.212;6.574;2023-04-29T05:55:54;17.90;69.60
52295;DHT22;38243;53.212;6.574;2023-04-29T05:58:19;17.90;69.60
52295;DHT22;38243;53.212;6.574;2023-04-29T06:00:45;17.90;69.50
52295;DHT22;38243;53.212;6.574;2023-04-29T06:03:13;17.90;69.60
52295;DHT22;38243;53.212;6.574;2023-04-29T06:05:39;17.90;69.60
52295;DHT22;38243;53.212;6.574;2023-04-29T06:08:05;17.90;69.60
52295;DHT22;38243;53.212;6.574;2023-04-29T06:10:31;17.90;69.60
52295;DHT22;38243;53.212;6.574;2023-04-29T06:12:57;17.90;69.60
52295;DHT22;38243;53.212;6.574;2023-04-29T06:15:23;17.90;69.60
52295;DHT22;38243;53.212;6.574;2023-04-29T06:17:49;17.90;69.60
52295;DHT22;38243;53.212;6.574;2023-04-29T06:20:14;17.90;69.60
52295;DHT22;38243;53.212;6.574;2023-04-29T06:22:40;17.90;69.60
52295;DHT22;38243;53.212;6.574;2023-04-29T06:25:06;17.90;69.60
52295;DHT22;38243;53.212;6.574;2023-04-29T06:27:32;17.90;69.50
52295;DHT22;38243;53.212;6.574;2023-04-29T06:29:57;17.90;69.50
52295;DHT22;38243;53.212;6.574;2023-04-29T06:32:23;17.90;69.50
52295;DHT22;38243;53.212;6.574;2023-04-29T06:34:49;17.90;69.50
52295;DHT22;38243;53.212;6.574;2023-04-29T06:37:15;17.90;69.40
52295;DHT22;38243;53.212;6.574;2023-04-29T06:39:41;17.90;69.40
52295;DHT22;38243;53.212;6.574;2023-04-29T06:42:07;18.70;69.80
52295;DHT22;38243;53.212;6.574;2023-04-29T06:44:32;17.90;69.40
52295;DHT22;38243;53.212;6.574;2023-04-29T06:46:58;17.90;69.40
52295;DHT22;38243;53.212;6.574;2023-04-29T06:49:24;17.90;69.40
52295;DHT22;38243;53.212;6.574;2023-04-29T06:51:50;17.90;69.40
52295;DHT22;38243;53.212;6.574;2023-04-29T06:54:15;17.90;69.40
52295;DHT22;38243;53.212;6.574;2023-04-29T06:56:41;18.00;69.50
52295;DHT22;38243;53.212;6.574;2023-04-29T06:59:07;18.00;69.40
52295;DHT22;38243;53.212;6.574;2023-04-29T07:01:32;18.00;69.40
52295;DHT22;38243;53.212;6.574;2023-04-29T07:03:59;18.00;69.40
52295;DHT22;38243;53.212;6.574;2023-04-29T07:06:24;18.00;69.40
52295;DHT22;38243;53.212;6.574;2023-04-29T07:08:50;18.00;69.40
52295;DHT22;38243;53.212;6.574;2023-04-29T07:11:16;18.00;69.30
52295;DHT22;38243;53.212;6.574;2023-04-29T07:13:42;18.00;69.30
52295;DHT22;38243;53.212;6.574;2023-04-29T07:16:15;18.00;69.30
52295;DHT22;38243;53.212;6.574;2023-04-29T07:18:42;18.00;69.30
52295;DHT22;38243;53.212;6.574;2023-04-29T07:21:08;18.00;69.30
52295;DHT22;38243;53.212;6.574;2023-04-29T07:23:34;18.00;69.30
52295;DHT22;38243;53.212;6.574;2023-04-29T07:26:09;18.00;69.20
52295;DHT22;38243;53.212;6.574;2023-04-29T07:28:34;18.10;69.30
52295;DHT22;38243;53.212;6.574;2023-04-29T07:31:00;18.10;69.30
52295;DHT22;38243;53.212;6.574;2023-04-29T07:33:26;18.10;69.30
52295;DHT22;38243;53.212;6.574;2023-04-29T07:35:51;18.10;69.30
52295;DHT22;38243;53.212;6.574;2023-04-29T07:38:17;18.10;69.30
52295;DHT22;38243;53.212;6.574;2023-04-29T07:40:43;18.10;69.20
52295;DHT22;38243;53.212;6.574;2023-04-29T07:43:09;18.10;69.30
52295;DHT22;38243;53.212;6.574;2023-04-29T07:45:35;18.10;69.90
52295;DHT22;38243;53.212;6.574;2023-04-29T07:48:01;18.10;69.20
52295;DHT22;38243;53.212;6.574;2023-04-29T07:50:27;18.10;69.20
52295;DHT22;38243;53.212;6.574;2023-04-29T07:52:52;18.20;69.30
52295;DHT22;38243;53.212;6.574;2023-04-29T07:55:19;18.20;69.20
52295;DHT22;38243;53.212;6.574;2023-04-29T07:57:45;18.20;69.20
52295;DHT22;38243;53.212;6.574;2023-04-29T08:00:11;18.20;69.10
52295;DHT22;38243;53.212;6.574;2023-04-29T08:02:37;18.20;69.10
52295;DHT22;38243;53.212;6.574;2023-04-29T08:05:03;18.20;69.10
52295;DHT22;38243;53.212;6.574;2023-04-29T08:07:29;18.20;69.30
52295;DHT22;38243;53.212;6.574;2023-04-29T08:09:55;18.20;69.10
52295;DHT22;38243;53.212;6.574;2023-04-29T08:12:20;18.20;69.10
52295;DHT22;38243;53.212;6.574;2023-04-29T08:14:46;18.20;69.10
52295;DHT22;38243;53.212;6.574;2023-04-29T08:17:12;18.30;69.20
52295;DHT22;38243;53.212;6.574;2023-04-29T08:19:37;18.20;69.10
52295;DHT22;38243;53.212;6.574;2023-04-29T08:22:03;18.20;69.10
52295;DHT22;38243;53.212;6.574;2023-04-29T08:24:29;18.30;69.20
52295;DHT22;38243;53.212;6.574;2023-04-29T08:26:55;18.30;69.10
52295;DHT22;38243;53.212;6.574;2023-04-29T08:29:21;18.30;69.10
52295;DHT22;38243;53.212;6.574;2023-04-29T08:31:46;18.30;69.10
52295;DHT22;38243;53.212;6.574;2023-04-29T08:34:12;18.30;69.10
52295;DHT22;38243;53.212;6.574;2023-04-29T08:36:38;18.30;69.00
52295;DHT22;38243;53.212;6.574;2023-04-29T08:39:03;18.30;69.00
52295;DHT22;38243;53.212;6.574;2023-04-29T08:41:31;18.40;69.00
52295;DHT22;38243;53.212;6.574;2023-04-29T08:43:58;18.40;69.00
52295;DHT22;38243;53.212;6.574;2023-04-29T08:46:25;18.40;69.00
52295;DHT22;38243;53.212;6.574;2023-04-29T08:48:52;18.40;69.00
52295;DHT22;38243;53.212;6.574;2023-04-29T08:51:17;18.40;68.90
52295;DHT22;38243;53.212;6.574;2023-04-29T08:53:43;18.40;68.90
52295;DHT22;38243;53.212;6.574;2023-04-29T08:56:17;18.50;68.90
52295;DHT22;38243;53.212;6.574;2023-04-29T08:58:46;18.50;68.70
52295;DHT22;38243;53.212;6.574;2023-04-29T09:01:14;18.50;68.60
52295;DHT22;38243;53.212;6.574;2023-04-29T09:03:49;18.50;68.50
52295;DHT22;38243;53.212;6.574;2023-04-29T09:06:19;18.50;68.50
52295;DHT22;38243;53.212;6.574;2023-04-29T09:08:46;18.50;68.30
52295;DHT22;38243;53.212;6.574;2023-04-29T09:11:13;18.50;68.20
52295;DHT22;38243;53.212;6.574;2023-04-29T09:13:39;18.50;68.10
52295;DHT22;38243;53.212;6.574;2023-04-29T09:16:12;18.50;68.10
52295;DHT22;38243;53.212;6.574;2023-04-29T09:18:46;18.50;68.00
52295;DHT22;38243;53.212;6.574;2023-04-29T09:21:21;18.50;67.90
52295;DHT22;38243;53.212;6.574;2023-04-29T09:23:53;18.50;67.80
52295;DHT22;38243;53.212;6.574;2023-04-29T09:26:19;18.60;67.80
52295;DHT22;38243;53.212;6.574;2023-04-29T09:28:45;18.60;67.80
52295;DHT22;38243;53.212;6.574;2023-04-29T09:31:12;18.60;67.60
52295;DHT22;38243;53.212;6.574;2023-04-29T09:33:56;18.60;67.60
52295;DHT22;38243;53.212;6.574;2023-04-29T09:39:20;18.60;67.60
52295;DHT22;38243;53.212;6.574;2023-04-29T09:44:20;18.60;67.50
52295;DHT22;38243;53.212;6.574;2023-04-29T09:51:56;18.70;67.60
52295;DHT22;38243;53.212;6.574;2023-04-29T09:54:28;18.70;68.20
52295;DHT22;38243;53.212;6.574;2023-04-29T09:56:55;18.70;67.50
52295;DHT22;38243;53.212;6.574;2023-04-29T09:59:22;18.70;67.40
52295;DHT22;38243;53.212;6.574;2023-04-29T10:01:51;18.70;67.40
52295;DHT22;38243;53.212;6.574;2023-04-29T10:04:18;18.70;67.30
52295;DHT22;38243;53.212;6.574;2023-04-29T10:06:45;18.70;67.30
52295;DHT22;38243;53.212;6.574;2023-04-29T10:09:14;18.80;67.30
52295;DHT22;38243;53.212;6.574;2023-04-29T10:11:44;18.80;67.30
52295;DHT22;38243;53.212;6.574;2023-04-29T10:14:30;18.80;67.20
52295;DHT22;38243;53.212;6.574;2023-04-29T10:17:03;18.80;67.20
52295;DHT22;38243;53.212;6.574;2023-04-29T10:19:52;18.80;67.20
52295;DHT22;38243;53.212;6.574;2023-04-29T10:22:53;18.80;67.10
52295;DHT22;38243;53.212;6.574;2023-04-29T10:25:22;18.90;67.20
52295;DHT22;38243;53.212;6.574;2023-04-29T10:27:49;18.90;67.10
52295;DHT22;38243;53.212;6.574;2023-04-29T10:30:18;18.90;67.10
52295;DHT22;38243;53.212;6.574;2023-04-29T10:32:46;18.90;67.00
52295;DHT22;38243;53.212;6.574;2023-04-29T10:35:15;19.00;66.90
52295;DHT22;38243;53.212;6.574;2023-04-29T10:37:43;19.00;66.90
52295;DHT22;38243;53.212;6.574;2023-04-29T10:40:20;19.00;66.80
52295;DHT22;38243;53.212;6.574;2023-04-29T10:42:51;19.00;66.70
52295;DHT22;38243;53.212;6.574;2023-04-29T10:45:22;19.10;66.70
52295;DHT22;38243;53.212;6.574;2023-04-29T10:50:40;19.20;66.30
52295;DHT22;38243;53.212;6.574;2023-04-29T10:53:23;19.20;66.10
52295;DHT22;38243;53.212;6.574;2023-04-29T10:55:55;19.20;65.80
52295;DHT22;38243;53.212;6.574;2023-04-29T10:58:44;19.20;65.70
52295;DHT22;38243;53.212;6.574;2023-04-29T11:01:15;19.20;65.60
52295;DHT22;38243;53.212;6.574;2023-04-29T11:06:13;19.20;65.20
52295;DHT22;38243;53.212;6.574;2023-04-29T11:08:40;19.20;65.00
52295;DHT22;38243;53.212;6.574;2023-04-29T11:11:06;19.20;64.90
52295;DHT22;38243;53.212;6.574;2023-04-29T11:13:39;19.20;65.00
52295;DHT22;38243;53.212;6.574;2023-04-29T11:16:07;19.20;64.90
52295;DHT22;38243;53.212;6.574;2023-04-29T11:18:34;19.20;64.70
52295;DHT22;38243;53.212;6.574;2023-04-29T11:23:36;19.20;64.60
52295;DHT22;38243;53.212;6.574;2023-04-29T11:26:02;19.30;64.70
52295;DHT22;38243;53.212;6.574;2023-04-29T11:28:29;19.20;64.70
52295;DHT22;38243;53.212;6.574;2023-04-29T11:30:56;19.30;64.80
52295;DHT22;38243;53.212;6.574;2023-04-29T11:33:23;19.20;64.60
52295;DHT22;38243;53.212;6.574;2023-04-29T11:35:49;19.30;64.50
52295;DHT22;38243;53.212;6.574;2023-04-29T11:38:15;19.20;64.40
52295;DHT22;38243;53.212;6.574;2023-04-29T11:40:50;19.30;64.50
52295;DHT22;38243;53.212;6.574;2023-04-29T11:43:16;19.30;64.40
52295;DHT22;38243;53.212;6.574;2023-04-29T11:45:46;19.30;64.20
52295;DHT22;38243;53.212;6.574;2023-04-29T11:48:22;19.30;64.20
52295;DHT22;38243;53.212;6.574;2023-04-29T11:50:55;19.30;64.10
52295;DHT22;38243;53.212;6.574;2023-04-29T11:53:24;19.30;64.20
52295;DHT22;38243;53.212;6.574;2023-04-29T11:55:53;19.20;64.00
52295;DHT22;38243;53.212;6.574;2023-04-29T11:58:23;19.20;64.00
52295;DHT22;38243;53.212;6.574;2023-04-29T12:00:49;19.30;64.00
52295;DHT22;38243;53.212;6.574;2023-04-29T12:03:19;19.20;63.90
52295;DHT22;38243;53.212;6.574;2023-04-29T12:05:54;19.20;64.00
52295;DHT22;38243;53.212;6.574;2023-04-29T12:08:24;19.20;63.90
52295;DHT22;38243;53.212;6.574;2023-04-29T12:10:51;19.20;64.50
52295;DHT22;38243;53.212;6.574;2023-04-29T12:13:18;19.20;63.80
52295;DHT22;38243;53.212;6.574;2023-04-29T12:15:45;19.20;63.80
52295;DHT22;38243;53.212;6.574;2023-04-29T12:18:13;19.20;63.90
52295;DHT22;38243;53.212;6.574;2023-04-29T12:20:39;19.20;64.00
52295;DHT22;38243;53.212;6.574;2023-04-29T12:23:16;19.20;63.80
52295;DHT22;38243;53.212;6.574;2023-04-29T12:25:57;19.20;63.60
52295;DHT22;38243;53.212;6.574;2023-04-29T12:28:24;19.20;63.60
52295;DHT22;38243;53.212;6.574;2023-04-29T12:30:52;19.20;63.60
52295;DHT22;38243;53.212;6.574;2023-04-29T12:33:28;19.20;63.80
52295;DHT22;38243;53.212;6.574;2023-04-29T12:35:56;19.20;63.70
52295;DHT22;38243;53.212;6.574;2023-04-29T12:38:27;19.20;63.70
52295;DHT22;38243;53.212;6.574;2023-04-29T12:40:55;19.20;63.40
52295;DHT22;38243;53.212;6.574;2023-04-29T12:43:28;19.20;63.40
52295;DHT22;38243;53.212;6.574;2023-04-29T12:46:04;19.20;63.70
52295;DHT22;38243;53.212;6.574;2023-04-29T12:48:31;19.10;63.40
52295;DHT22;38243;53.212;6.574;2023-04-29T12:50:58;19.10;63.20
52295;DHT22;38243;53.212;6.574;2023-04-29T12:53:25;19.10;63.20
52295;DHT22;38243;53.212;6.574;2023-04-29T12:55:52;19.10;63.40
52295;DHT22;38243;53.212;6.574;2023-04-29T12:58:18;19.10;63.30
52295;DHT22;38243;53.212;6.574;2023-04-29T13:00:43;19.10;63.20
52295;DHT22;38243;53.212;6.574;2023-04-29T13:03:09;19.10;63.30
52295;DHT22;38243;53.212;6.574;2023-04-29T13:05:35;19.10;63.20
52295;DHT22;38243;53.212;6.574;2023-04-29T13:08:01;19.10;63.00
52295;DHT22;38243;53.212;6.574;2023-04-29T13:10:27;19.10;62.90
52295;DHT22;38243;53.212;6.574;2023-04-29T13:12:53;19.10;63.20
52295;DHT22;38243;53.212;6.574;2023-04-29T13:15:19;19.10;63.20
52295;DHT22;38243;53.212;6.574;2023-04-29T13:17:46;19.10;63.10
52295;DHT22;38243;53.212;6.574;2023-04-29T13:20:11;19.10;63.00
52295;DHT22;38243;53.212;6.574;2023-04-29T13:22:38;19.00;62.90
52295;DHT22;38243;53.212;6.574;2023-04-29T13:25:04;19.10;63.00
52295;DHT22;38243;53.212;6.574;2023-04-29T13:27:30;19.00;63.00
52295;DHT22;38243;53.212;6.574;2023-04-29T13:29:55;19.10;63.30
52295;DHT22;38243;53.212;6.574;2023-04-29T13:32:22;19.00;63.30
52295;DHT22;38243;53.212;6.574;2023-04-29T13:34:52;19.10;63.60
52295;DHT22;38243;53.212;6.574;2023-04-29T13:37:18;19.10;63.50
52295;DHT22;38243;53.212;6.574;2023-04-29T13:39:46;19.10;63.40
52295;DHT22;38243;53.212;6.574;2023-04-29T13:42:12;19.00;63.50
52295;DHT22;38243;53.212;6.574;2023-04-29T13:44:38;19.10;63.50
52295;DHT22;38243;53.212;6.574;2023-04-29T13:47:09;19.00;63.60
52295;DHT22;38243;53.212;6.574;2023-04-29T13:49:36;19.10;63.70
52295;DHT22;38243;53.212;6.574;2023-04-29T13:52:02;19.00;63.50
52295;DHT22;38243;53.212;6.574;2023-04-29T13:54:27;19.00;63.60
52295;DHT22;38243;53.212;6.574;2023-04-29T13:56:53;19.00;63.60
52295;DHT22;38243;53.212;6.574;2023-04-29T13:59:19;19.10;63.80
52295;DHT22;38243;53.212;6.574;2023-04-29T14:01:44;19.00;63.70
52295;DHT22;38243;53.212;6.574;2023-04-29T14:04:10;19.00;63.80
52295;DHT22;38243;53.212;6.574;2023-04-29T14:06:36;19.00;63.80
52295;DHT22;38243;53.212;6.574;2023-04-29T14:09:02;19.10;64.00
52295;DHT22;38243;53.212;6.574;2023-04-29T14:11:28;19.00;63.90
52295;DHT22;38243;53.212;6.574;2023-04-29T14:13:54;19.00;64.00
52295;DHT22;38243;53.212;6.574;2023-04-29T14:16:20;19.00;64.00
52295;DHT22;38243;53.212;6.574;2023-04-29T14:18:46;19.00;64.00
52295;DHT22;38243;53.212;6.574;2023-04-29T14:21:11;19.00;64.10
52295;DHT22;38243;53.212;6.574;2023-04-29T14:23:38;19.00;64.10
52295;DHT22;38243;53.212;6.574;2023-04-29T14:26:04;19.00;64.10
52295;DHT22;38243;53.212;6.574;2023-04-29T14:28:29;19.00;64.20
52295;DHT22;38243;53.212;6.574;2023-04-29T14:30:55;19.00;64.30
52295;DHT22;38243;53.212;6.574;2023-04-29T14:33:21;19.00;64.20
52295;DHT22;38243;53.212;6.574;2023-04-29T14:35:47;19.00;64.40
52295;DHT22;38243;53.212;6.574;2023-04-29T14:38:13;19.00;64.30
52295;DHT22;38243;53.212;6.574;2023-04-29T14:40:38;19.00;64.30
52295;DHT22;38243;53.212;6.574;2023-04-29T14:43:04;19.00;64.30
52295;DHT22;38243;53.212;6.574;2023-04-29T14:45:31;19.00;64.40
52295;DHT22;38243;53.212;6.574;2023-04-29T14:47:56;19.00;64.40
52295;DHT22;38243;53.212;6.574;2023-04-29T14:50:22;19.00;64.40
52295;DHT22;38243;53.212;6.574;2023-04-29T14:52:50;19.00;64.40
52295;DHT22;38243;53.212;6.574;2023-04-29T14:55:15;19.00;64.50
52295;DHT22;38243;53.212;6.574;2023-04-29T14:57:41;19.00;64.50
52295;DHT22;38243;53.212;6.574;2023-04-29T15:00:07;19.00;64.50
52295;DHT22;38243;53.212;6.574;2023-04-29T15:02:33;19.00;64.50
52295;DHT22;38243;53.212;6.574;2023-04-29T15:04:59;19.00;64.50
52295;DHT22;38243;53.212;6.574;2023-04-29T15:07:25;19.00;64.50
52295;DHT22;38243;53.212;6.574;2023-04-29T15:09:51;19.00;64.50
52295;DHT22;38243;53.212;6.574;2023-04-29T15:12:17;19.00;64.50
52295;DHT22;38243;53.212;6.574;2023-04-29T15:14:44;19.00;64.60
52295;DHT22;38243;53.212;6.574;2023-04-29T15:17:10;19.00;64.60
52295;DHT22;38243;53.212;6.574;2023-04-29T15:19:35;19.00;64.60
52295;DHT22;38243;53.212;6.574;2023-04-29T15:22:01;19.00;64.70
52295;DHT22;38243;53.212;6.574;2023-04-29T15:24:27;19.00;64.70
52295;DHT22;38243;53.212;6.574;2023-04-29T15:26:52;19.00;64.70
52295;DHT22;38243;53.212;6.574;2023-04-29T15:29:18;19.00;64.70
52295;DHT22;38243;53.212;6.574;2023-04-29T15:31:44;19.00;65.50
52295;DHT22;38243;53.212;6.574;2023-04-29T15:34:09;19.00;64.80
52295;DHT22;38243;53.212;6.574;2023-04-29T15:36:35;19.10;64.90
52295;DHT22;38243;53.212;6.574;2023-04-29T15:39:01;19.00;64.80
52295;DHT22;38243;53.212;6.574;2023-04-29T15:41:27;19.00;64.90
52295;DHT22;38243;53.212;6.574;2023-04-29T15:43:53;19.00;64.90
52295;DHT22;38243;53.212;6.574;2023-04-29T15:46:20;19.10;64.90
52295;DHT22;38243;53.212;6.574;2023-04-29T15:48:46;19.00;64.90
52295;DHT22;38243;53.212;6.574;2023-04-29T15:51:12;19.00;64.90
52295;DHT22;38243;53.212;6.574;2023-04-29T15:53:41;19.00;64.90
52295;DHT22;38243;53.212;6.574;2023-04-29T15:56:08;19.00;64.90
52295;DHT22;38243;53.212;6.574;2023-04-29T15:58:34;19.10;64.90